sensor_id;sensor_type;location;lat;lon;timestamp;P1;durP1;ratioP1;P2;durP2;ratioP2
5543;SDS011;2795;47.652;13.128;2023-06-10T00:00:16;25.00;;;9.50;;
5543;SDS011;2795;47.652;13.128;2023-06-10T00:02:45;20.20;;;8.80;;
5543;SDS011;2795;47.652;13.128;2023-06-10T00:05:15;24.67;;;8.70;;
5543;SDS011;2795;47.652;13.128;2023-06-10T00:07:43;19.90;;;8.60;;
5543;SDS011;2795;47.652;13.128;2023-06-10T00:10:15;21.27;;;8.87;;
5543;SDS011;2795;47.652;13.128;2023-06-10T00:12:47;28.63;;;9.93;;
5543;SDS011;2795;47.652;13.128;2023-06-10T00:15:17;30.07;;;10.10;;
5543;SDS011;2795;47.652;13.128;2023-06-10T00:17:48;19.73;;;9.50;;
5543;SDS011;2795;47.652;13.128;2023-06-10T00:20:21;24.73;;;10.07;;
5543;SDS011;2795;47.652;13.128;2023-06-10T00:22:56;20.83;;;8.87;;
5543;SDS011;2795;47.652;13.128;2023-06-10T00:25:28;15.90;;;8.07;;
5543;SDS011;2795;47.652;13.128;2023-06-10T00:28:00;17.27;;;8.03;;
5543;SDS011;2795;47.652;13.128;2023-06-10T00:30:30;22.10;;;9.80;;
5543;SDS011;2795;47.652;13.128;2023-06-10T00:33:02;23.03;;;10.37;;
5543;SDS011;2795;47.652;13.128;2023-06-10T00:35:33;23.20;;;8.90;;
5543;SDS011;2795;47.652;13.128;2023-06-10T00:38:04;17.13;;;9.10;;
5543;SDS011;2795;47.652;13.128;2023-06-10T00:40:39;24.97;;;9.20;;
5543;SDS011;2795;47.652;13.128;2023-06-10T00:43:10;20.87;;;9.50;;
5543;SDS011;2795;47.652;13.128;2023-06-10T00:45:41;21.40;;;9.67;;
5543;SDS011;2795;47.652;13.128;2023-06-10T00:48:11;18.13;;;9.67;;
5543;SDS011;2795;47.652;13.128;2023-06-10T00:50:39;21.03;;;8.83;;
5543;SDS011;2795;47.652;13.128;2023-06-10T00:53:11;20.90;;;8.90;;
5543;SDS011;2795;47.652;13.128;2023-06-10T00:55:41;21.20;;;8.70;;
5543;SDS011;2795;47.652;13.128;2023-06-10T00:58:14;19.50;;;8.57;;
5543;SDS011;2795;47.652;13.128;2023-06-10T01:00:46;18.10;;;9.43;;
5543;SDS011;2795;47.652;13.128;2023-06-10T01:03:17;20.80;;;8.70;;
5543;SDS011;2795;47.652;13.128;2023-06-10T01:05:49;34.30;;;10.27;;
5543;SDS011;2795;47.652;13.128;2023-06-10T01:11:29;20.13;;;8.80;;
5543;SDS011;2795;47.652;13.128;2023-06-10T01:14:03;18.00;;;9.43;;
5543;SDS011;2795;47.652;13.128;2023-06-10T01:16:35;17.90;;;7.90;;
5543;SDS011;2795;47.652;13.128;2023-06-10T01:19:05;19.93;;;8.90;;
5543;SDS011;2795;47.652;13.128;2023-06-10T01:21:34;22.10;;;8.57;;
5543;SDS011;2795;47.652;13.128;2023-06-10T01:24:06;14.10;;;7.60;;
5543;SDS011;2795;47.652;13.128;2023-06-10T01:26:38;17.23;;;8.70;;
5543;SDS011;2795;47.652;13.128;2023-06-10T01:32:23;20.07;;;9.43;;
5543;SDS011;2795;47.652;13.128;2023-06-10T01:34:58;22.03;;;9.50;;
5543;SDS011;2795;47.652;13.128;2023-06-10T01:37:27;22.00;;;9.23;;
5543;SDS011;2795;47.652;13.128;2023-06-10T01:39:59;17.00;;;8.70;;
5543;SDS011;2795;47.652;13.128;2023-06-10T01:42:27;17.93;;;9.13;;
5543;SDS011;2795;47.652;13.128;2023-06-10T01:44:56;18.70;;;9.70;;
5543;SDS011;2795;47.652;13.128;2023-06-10T01:47:24;20.70;;;10.10;;
5543;SDS011;2795;47.652;13.128;2023-06-10T01:49:55;26.03;;;10.20;;
5543;SDS011;2795;47.652;13.128;2023-06-10T01:52:25;19.83;;;8.80;;
5543;SDS011;2795;47.652;13.128;2023-06-10T01:54:53;23.30;;;9.17;;
5543;SDS011;2795;47.652;13.128;2023-06-10T01:57:23;19.43;;;7.57;;
5543;SDS011;2795;47.652;13.128;2023-06-10T01:59:50;30.13;;;9.83;;
5543;SDS011;2795;47.652;13.128;2023-06-10T02:02:18;22.07;;;9.10;;
5543;SDS011;2795;47.652;13.128;2023-06-10T02:04:47;19.63;;;8.67;;
5543;SDS011;2795;47.652;13.128;2023-06-10T02:07:15;22.13;;;9.20;;
5543;SDS011;2795;47.652;13.128;2023-06-10T02:09:45;21.53;;;9.50;;
5543;SDS011;2795;47.652;13.128;2023-06-10T02:12:12;26.97;;;9.77;;
5543;SDS011;2795;47.652;13.128;2023-06-10T02:14:42;23.97;;;9.50;;
5543;SDS011;2795;47.652;13.128;2023-06-10T02:17:09;19.90;;;9.63;;
5543;SDS011;2795;47.652;13.128;2023-06-10T02:19:40;25.00;;;10.67;;
5543;SDS011;2795;47.652;13.128;2023-06-10T02:22:09;23.67;;;10.50;;
5543;SDS011;2795;47.652;13.128;2023-06-10T02:24:36;22.30;;;9.70;;
5543;SDS011;2795;47.652;13.128;2023-06-10T02:27:07;23.10;;;10.00;;
5543;SDS011;2795;47.652;13.128;2023-06-10T02:29:37;22.27;;;8.93;;
5543;SDS011;2795;47.652;13.128;2023-06-10T02:32:04;21.23;;;9.03;;
5543;SDS011;2795;47.652;13.128;2023-06-10T02:34:36;21.03;;;8.43;;
5543;SDS011;2795;47.652;13.128;2023-06-10T02:37:07;19.67;;;8.60;;
5543;SDS011;2795;47.652;13.128;2023-06-10T02:39:37;24.63;;;10.10;;
5543;SDS011;2795;47.652;13.128;2023-06-10T02:42:05;22.50;;;10.10;;
5543;SDS011;2795;47.652;13.128;2023-06-10T02:44:36;22.53;;;9.77;;
5543;SDS011;2795;47.652;13.128;2023-06-10T02:47:08;21.23;;;9.80;;
5543;SDS011;2795;47.652;13.128;2023-06-10T02:49:38;22.57;;;10.57;;
5543;SDS011;2795;47.652;13.128;2023-06-10T02:52:11;18.17;;;9.60;;
5543;SDS011;2795;47.652;13.128;2023-06-10T02:54:39;21.53;;;9.60;;
5543;SDS011;2795;47.652;13.128;2023-06-10T02:57:10;20.20;;;9.60;;
5543;SDS011;2795;47.652;13.128;2023-06-10T02:59:41;19.70;;;8.60;;
5543;SDS011;2795;47.652;13.128;2023-06-10T03:02:12;30.17;;;10.40;;
5543;SDS011;2795;47.652;13.128;2023-06-10T03:04:43;18.40;;;8.53;;
5543;SDS011;2795;47.652;13.128;2023-06-10T03:07:14;25.43;;;10.90;;
5543;SDS011;2795;47.652;13.128;2023-06-10T03:09:46;26.47;;;11.57;;
5543;SDS011;2795;47.652;13.128;2023-06-10T03:12:16;21.73;;;9.60;;
5543;SDS011;2795;47.652;13.128;2023-06-10T03:14:48;22.97;;;9.30;;
5543;SDS011;2795;47.652;13.128;2023-06-10T03:17:18;17.77;;;8.90;;
5543;SDS011;2795;47.652;13.128;2023-06-10T03:19:49;26.93;;;10.10;;
5543;SDS011;2795;47.652;13.128;2023-06-10T03:22:20;24.33;;;9.63;;
5543;SDS011;2795;47.652;13.128;2023-06-10T03:24:53;23.20;;;8.80;;
5543;SDS011;2795;47.652;13.128;2023-06-10T03:27:24;25.73;;;10.37;;
5543;SDS011;2795;47.652;13.128;2023-06-10T03:29:55;18.77;;;9.43;;
5543;SDS011;2795;47.652;13.128;2023-06-10T03:32:22;20.10;;;9.37;;
5543;SDS011;2795;47.652;13.128;2023-06-10T03:34:51;24.87;;;10.03;;
5543;SDS011;2795;47.652;13.128;2023-06-10T03:37:25;20.67;;;8.87;;
5543;SDS011;2795;47.652;13.128;2023-06-10T03:39:52;25.33;;;9.53;;
5543;SDS011;2795;47.652;13.128;2023-06-10T03:42:20;34.37;;;12.63;;
5543;SDS011;2795;47.652;13.128;2023-06-10T03:44:52;29.83;;;12.40;;
5543;SDS011;2795;47.652;13.128;2023-06-10T03:47:23;20.60;;;10.40;;
5543;SDS011;2795;47.652;13.128;2023-06-10T03:49:54;23.70;;;10.50;;
5543;SDS011;2795;47.652;13.128;2023-06-10T03:52:25;19.00;;;10.03;;
5543;SDS011;2795;47.652;13.128;2023-06-10T03:54:54;23.33;;;9.80;;
5543;SDS011;2795;47.652;13.128;2023-06-10T03:57:25;22.10;;;11.40;;
5543;SDS011;2795;47.652;13.128;2023-06-10T03:59:56;26.27;;;11.27;;
5543;SDS011;2795;47.652;13.128;2023-06-10T04:02:26;34.57;;;12.23;;
5543;SDS011;2795;47.652;13.128;2023-06-10T04:05:00;27.87;;;11.97;;
5543;SDS011;2795;47.652;13.128;2023-06-10T04:07:36;23.23;;;11.40;;
5543;SDS011;2795;47.652;13.128;2023-06-10T04:10:14;26.50;;;13.40;;
5543;SDS011;2795;47.652;13.128;2023-06-10T04:12:49;27.53;;;14.90;;
5543;SDS011;2795;47.652;13.128;2023-06-10T04:15:21;28.93;;;13.03;;
5543;SDS011;2795;47.652;13.128;2023-06-10T04:17:51;21.27;;;11.63;;
5543;SDS011;2795;47.652;13.128;2023-06-10T04:20:20;25.17;;;10.77;;
5543;SDS011;2795;47.652;13.128;2023-06-10T04:22:52;22.90;;;10.87;;
5543;SDS011;2795;47.652;13.128;2023-06-10T04:25:25;20.97;;;10.20;;
5543;SDS011;2795;47.652;13.128;2023-06-10T04:27:59;25.03;;;10.80;;
5543;SDS011;2795;47.652;13.128;2023-06-10T04:30:31;23.50;;;10.70;;
5543;SDS011;2795;47.652;13.128;2023-06-10T04:33:06;23.57;;;11.10;;
5543;SDS011;2795;47.652;13.128;2023-06-10T04:35:39;21.13;;;10.57;;
5543;SDS011;2795;47.652;13.128;2023-06-10T04:38:13;22.60;;;11.17;;
5543;SDS011;2795;47.652;13.128;2023-06-10T04:40:48;22.90;;;11.23;;
5543;SDS011;2795;47.652;13.128;2023-06-10T04:43:21;22.13;;;9.60;;
5543;SDS011;2795;47.652;13.128;2023-06-10T04:45:56;21.20;;;9.67;;
5543;SDS011;2795;47.652;13.128;2023-06-10T04:48:35;19.30;;;10.03;;
5543;SDS011;2795;47.652;13.128;2023-06-10T04:51:09;27.10;;;13.10;;
5543;SDS011;2795;47.652;13.128;2023-06-10T04:53:41;25.60;;;13.90;;
5543;SDS011;2795;47.652;13.128;2023-06-10T04:56:16;29.73;;;13.80;;
5543;SDS011;2795;47.652;13.128;2023-06-10T04:58:46;22.30;;;10.60;;
5543;SDS011;2795;47.652;13.128;2023-06-10T05:01:13;23.50;;;10.70;;
5543;SDS011;2795;47.652;13.128;2023-06-10T05:03:41;27.70;;;11.90;;
5543;SDS011;2795;47.652;13.128;2023-06-10T05:06:08;18.27;;;10.63;;
5543;SDS011;2795;47.652;13.128;2023-06-10T05:08:38;20.63;;;11.40;;
5543;SDS011;2795;47.652;13.128;2023-06-10T05:11:06;18.63;;;10.67;;
5543;SDS011;2795;47.652;13.128;2023-06-10T05:13:34;17.50;;;9.57;;
5543;SDS011;2795;47.652;13.128;2023-06-10T05:16:02;16.83;;;8.90;;
5543;SDS011;2795;47.652;13.128;2023-06-10T05:18:29;15.27;;;10.00;;
5543;SDS011;2795;47.652;13.128;2023-06-10T05:20:58;17.03;;;9.57;;
5543;SDS011;2795;47.652;13.128;2023-06-10T05:23:25;15.67;;;8.80;;
5543;SDS011;2795;47.652;13.128;2023-06-10T05:25:52;21.77;;;10.07;;
5543;SDS011;2795;47.652;13.128;2023-06-10T05:28:22;18.90;;;9.27;;
5543;SDS011;2795;47.652;13.128;2023-06-10T05:30:51;16.53;;;8.43;;
5543;SDS011;2795;47.652;13.128;2023-06-10T05:33:19;20.70;;;9.50;;
5543;SDS011;2795;47.652;13.128;2023-06-10T05:35:46;23.77;;;9.37;;
5543;SDS011;2795;47.652;13.128;2023-06-10T05:38:13;27.23;;;10.03;;
5543;SDS011;2795;47.652;13.128;2023-06-10T05:40:39;21.23;;;9.03;;
5543;SDS011;2795;47.652;13.128;2023-06-10T05:43:06;17.13;;;8.63;;
5543;SDS011;2795;47.652;13.128;2023-06-10T05:45:34;22.23;;;8.90;;
5543;SDS011;2795;47.652;13.128;2023-06-10T05:48:01;17.33;;;8.57;;
5543;SDS011;2795;47.652;13.128;2023-06-10T05:50:28;16.00;;;7.90;;
5543;SDS011;2795;47.652;13.128;2023-06-10T05:52:54;13.40;;;8.20;;
5543;SDS011;2795;47.652;13.128;2023-06-10T05:55:21;21.80;;;8.50;;
5543;SDS011;2795;47.652;13.128;2023-06-10T05:57:57;16.40;;;8.47;;
5543;SDS011;2795;47.652;13.128;2023-06-10T06:00:26;19.90;;;8.80;;
5543;SDS011;2795;47.652;13.128;2023-06-10T06:02:54;15.83;;;8.00;;
5543;SDS011;2795;47.652;13.128;2023-06-10T06:05:22;16.97;;;8.70;;
5543;SDS011;2795;47.652;13.128;2023-06-10T06:07:49;17.10;;;9.07;;
5543;SDS011;2795;47.652;13.128;2023-06-10T06:10:18;16.80;;;9.43;;
5543;SDS011;2795;47.652;13.128;2023-06-10T06:12:45;17.63;;;9.00;;
5543;SDS011;2795;47.652;13.128;2023-06-10T06:15:12;19.87;;;9.07;;
5543;SDS011;2795;47.652;13.128;2023-06-10T06:17:39;23.53;;;9.10;;
5543;SDS011;2795;47.652;13.128;2023-06-10T06:20:06;20.70;;;10.03;;
5543;SDS011;2795;47.652;13.128;2023-06-10T06:22:34;22.90;;;10.00;;
5543;SDS011;2795;47.652;13.128;2023-06-10T06:25:01;18.33;;;9.40;;
5543;SDS011;2795;47.652;13.128;2023-06-10T06:27:28;14.17;;;8.77;;
5543;SDS011;2795;47.652;13.128;2023-06-10T06:29:57;16.10;;;8.30;;
5543;SDS011;2795;47.652;13.128;2023-06-10T06:32:25;21.73;;;9.47;;
5543;SDS011;2795;47.652;13.128;2023-06-10T06:34:54;24.20;;;9.47;;
5543;SDS011;2795;47.652;13.128;2023-06-10T06:37:21;19.67;;;9.67;;
5543;SDS011;2795;47.652;13.128;2023-06-10T06:39:52;16.17;;;8.70;;
5543;SDS011;2795;47.652;13.128;2023-06-10T06:42:20;24.53;;;9.60;;
5543;SDS011;2795;47.652;13.128;2023-06-10T06:44:47;23.40;;;9.80;;
5543;SDS011;2795;47.652;13.128;2023-06-10T06:47:13;18.90;;;9.50;;
5543;SDS011;2795;47.652;13.128;2023-06-10T06:49:40;21.00;;;9.33;;
5543;SDS011;2795;47.652;13.128;2023-06-10T06:52:07;16.10;;;8.80;;
5543;SDS011;2795;47.652;13.128;2023-06-10T06:54:34;18.23;;;9.43;;
5543;SDS011;2795;47.652;13.128;2023-06-10T06:57:01;18.23;;;8.77;;
5543;SDS011;2795;47.652;13.128;2023-06-10T06:59:29;17.97;;;9.20;;
5543;SDS011;2795;47.652;13.128;2023-06-10T07:01:56;18.77;;;10.40;;
5543;SDS011;2795;47.652;13.128;2023-06-10T07:04:23;18.60;;;9.00;;
5543;SDS011;2795;47.652;13.128;2023-06-10T07:06:51;17.23;;;8.20;;
5543;SDS011;2795;47.652;13.128;2023-06-10T07:09:19;19.20;;;9.00;;
5543;SDS011;2795;47.652;13.128;2023-06-10T07:11:46;24.53;;;9.93;;
5543;SDS011;2795;47.652;13.128;2023-06-10T07:14:13;18.77;;;9.30;;
5543;SDS011;2795;47.652;13.128;2023-06-10T07:16:40;18.40;;;9.47;;
5543;SDS011;2795;47.652;13.128;2023-06-10T07:19:07;22.40;;;9.17;;
5543;SDS011;2795;47.652;13.128;2023-06-10T07:21:34;16.80;;;8.50;;
5543;SDS011;2795;47.652;13.128;2023-06-10T07:24:02;15.00;;;8.80;;
5543;SDS011;2795;47.652;13.128;2023-06-10T07:26:29;13.53;;;8.07;;
5543;SDS011;2795;47.652;13.128;2023-06-10T07:28:56;15.00;;;8.63;;
5543;SDS011;2795;47.652;13.128;2023-06-10T07:31:23;18.20;;;9.30;;
5543;SDS011;2795;47.652;13.128;2023-06-10T07:33:51;19.07;;;10.50;;
5543;SDS011;2795;47.652;13.128;2023-06-10T07:36:18;24.10;;;12.80;;
5543;SDS011;2795;47.652;13.128;2023-06-10T07:38:45;23.03;;;12.80;;
5543;SDS011;2795;47.652;13.128;2023-06-10T07:41:12;21.73;;;11.97;;
5543;SDS011;2795;47.652;13.128;2023-06-10T07:43:40;25.83;;;11.77;;
5543;SDS011;2795;47.652;13.128;2023-06-10T07:46:08;27.17;;;11.60;;
5543;SDS011;2795;47.652;13.128;2023-06-10T07:48:35;26.47;;;12.33;;
5543;SDS011;2795;47.652;13.128;2023-06-10T07:51:02;18.33;;;10.70;;
5543;SDS011;2795;47.652;13.128;2023-06-10T07:53:28;18.97;;;11.20;;
5543;SDS011;2795;47.652;13.128;2023-06-10T07:55:55;20.13;;;11.27;;
5543;SDS011;2795;47.652;13.128;2023-06-10T07:58:22;16.90;;;10.10;;
5543;SDS011;2795;47.652;13.128;2023-06-10T08:00:49;20.43;;;9.60;;
5543;SDS011;2795;47.652;13.128;2023-06-10T08:03:16;28.40;;;11.40;;
5543;SDS011;2795;47.652;13.128;2023-06-10T08:05:43;18.20;;;9.67;;
5543;SDS011;2795;47.652;13.128;2023-06-10T08:08:10;23.67;;;10.60;;
5543;SDS011;2795;47.652;13.128;2023-06-10T08:10:37;20.13;;;10.67;;
5543;SDS011;2795;47.652;13.128;2023-06-10T08:13:04;21.97;;;10.27;;
5543;SDS011;2795;47.652;13.128;2023-06-10T08:15:43;17.03;;;9.23;;
5543;SDS011;2795;47.652;13.128;2023-06-10T08:18:19;18.73;;;9.27;;
5543;SDS011;2795;47.652;13.128;2023-06-10T08:20:46;18.90;;;9.93;;
5543;SDS011;2795;47.652;13.128;2023-06-10T08:23:14;18.43;;;9.50;;
5543;SDS011;2795;47.652;13.128;2023-06-10T08:25:41;21.43;;;10.27;;
5543;SDS011;2795;47.652;13.128;2023-06-10T08:28:09;18.80;;;9.80;;
5543;SDS011;2795;47.652;13.128;2023-06-10T08:30:38;17.77;;;9.23;;
5543;SDS011;2795;47.652;13.128;2023-06-10T08:33:05;23.53;;;10.10;;
5543;SDS011;2795;47.652;13.128;2023-06-10T08:35:34;18.73;;;10.30;;
5543;SDS011;2795;47.652;13.128;2023-06-10T08:38:01;20.33;;;10.90;;
5543;SDS011;2795;47.652;13.128;2023-06-10T08:40:29;20.50;;;11.43;;
5543;SDS011;2795;47.652;13.128;2023-06-10T08:43:17;19.77;;;11.20;;
5543;SDS011;2795;47.652;13.128;2023-06-10T08:46:07;15.63;;;10.30;;
5543;SDS011;2795;47.652;13.128;2023-06-10T08:48:39;19.37;;;10.10;;
5543;SDS011;2795;47.652;13.128;2023-06-10T08:51:10;21.17;;;10.70;;
5543;SDS011;2795;47.652;13.128;2023-06-10T08:53:43;16.93;;;9.80;;
5543;SDS011;2795;47.652;13.128;2023-06-10T08:56:15;22.33;;;10.33;;
5543;SDS011;2795;47.652;13.128;2023-06-10T08:58:47;19.60;;;10.47;;
5543;SDS011;2795;47.652;13.128;2023-06-10T09:01:20;20.77;;;10.77;;
5543;SDS011;2795;47.652;13.128;2023-06-10T09:03:48;21.90;;;11.43;;
5543;SDS011;2795;47.652;13.128;2023-06-10T09:06:17;19.53;;;11.43;;
5543;SDS011;2795;47.652;13.128;2023-06-10T09:08:46;21.87;;;12.37;;
5543;SDS011;2795;47.652;13.128;2023-06-10T09:11:15;24.70;;;12.13;;
5543;SDS011;2795;47.652;13.128;2023-06-10T09:13:44;22.63;;;12.17;;
5543;SDS011;2795;47.652;13.128;2023-06-10T09:16:12;21.17;;;12.37;;
5543;SDS011;2795;47.652;13.128;2023-06-10T09:18:41;23.37;;;12.17;;
5543;SDS011;2795;47.652;13.128;2023-06-10T09:21:10;27.53;;;14.07;;
5543;SDS011;2795;47.652;13.128;2023-06-10T09:23:38;24.00;;;14.60;;
5543;SDS011;2795;47.652;13.128;2023-06-10T09:26:08;25.80;;;13.10;;
5543;SDS011;2795;47.652;13.128;2023-06-10T09:28:37;28.50;;;14.60;;
5543;SDS011;2795;47.652;13.128;2023-06-10T09:31:06;20.93;;;12.93;;
5543;SDS011;2795;47.652;13.128;2023-06-10T09:33:37;26.60;;;14.03;;
5543;SDS011;2795;47.652;13.128;2023-06-10T09:36:09;24.77;;;16.70;;
5543;SDS011;2795;47.652;13.128;2023-06-10T09:38:36;23.03;;;13.03;;
5543;SDS011;2795;47.652;13.128;2023-06-10T09:41:05;23.37;;;14.60;;
5543;SDS011;2795;47.652;13.128;2023-06-10T09:43:39;24.40;;;14.30;;
5543;SDS011;2795;47.652;13.128;2023-06-10T09:46:14;22.83;;;13.73;;
5543;SDS011;2795;47.652;13.128;2023-06-10T09:48:46;18.73;;;12.80;;
5543;SDS011;2795;47.652;13.128;2023-06-10T09:51:15;26.30;;;14.70;;
5543;SDS011;2795;47.652;13.128;2023-06-10T09:53:53;27.33;;;14.17;;
5543;SDS011;2795;47.652;13.128;2023-06-10T09:56:46;20.57;;;12.33;;
5543;SDS011;2795;47.652;13.128;2023-06-10T09:59:13;25.70;;;13.87;;
5543;SDS011;2795;47.652;13.128;2023-06-10T10:01:42;20.97;;;12.70;;
5543;SDS011;2795;47.652;13.128;2023-06-10T10:04:10;22.53;;;12.47;;
5543;SDS011;2795;47.652;13.128;2023-06-10T10:06:39;25.73;;;12.57;;
5543;SDS011;2795;47.652;13.128;2023-06-10T10:09:09;18.40;;;11.60;;
5543;SDS011;2795;47.652;13.128;2023-06-10T10:11:39;25.87;;;12.37;;
5543;SDS011;2795;47.652;13.128;2023-06-10T10:14:09;23.70;;;12.17;;
5543;SDS011;2795;47.652;13.128;2023-06-10T10:16:37;20.60;;;12.10;;
5543;SDS011;2795;47.652;13.128;2023-06-10T10:19:25;23.90;;;12.47;;
5543;SDS011;2795;47.652;13.128;2023-06-10T10:22:01;20.87;;;12.20;;
5543;SDS011;2795;47.652;13.128;2023-06-10T10:24:33;22.63;;;12.00;;
5543;SDS011;2795;47.652;13.128;2023-06-10T10:27:11;17.33;;;11.30;;
5543;SDS011;2795;47.652;13.128;2023-06-10T10:29:41;19.57;;;11.20;;
5543;SDS011;2795;47.652;13.128;2023-06-10T10:32:16;22.10;;;12.23;;
5543;SDS011;2795;47.652;13.128;2023-06-10T10:34:50;23.37;;;11.40;;
5543;SDS011;2795;47.652;13.128;2023-06-10T10:37:23;19.60;;;11.90;;
5543;SDS011;2795;47.652;13.128;2023-06-10T10:39:52;19.70;;;10.63;;
5543;SDS011;2795;47.652;13.128;2023-06-10T10:42:19;18.00;;;9.50;;
5543;SDS011;2795;47.652;13.128;2023-06-10T10:44:50;20.60;;;10.33;;
5543;SDS011;2795;47.652;13.128;2023-06-10T10:47:19;17.53;;;9.43;;
5543;SDS011;2795;47.652;13.128;2023-06-10T10:49:50;21.10;;;10.30;;
5543;SDS011;2795;47.652;13.128;2023-06-10T10:52:26;16.50;;;9.47;;
5543;SDS011;2795;47.652;13.128;2023-06-10T10:54:54;17.30;;;10.07;;
5543;SDS011;2795;47.652;13.128;2023-06-10T10:57:23;16.47;;;9.43;;
5543;SDS011;2795;47.652;13.128;2023-06-10T10:59:55;17.10;;;9.37;;
5543;SDS011;2795;47.652;13.128;2023-06-10T11:02:36;16.63;;;9.77;;
5543;SDS011;2795;47.652;13.128;2023-06-10T11:05:14;13.60;;;8.30;;
5543;SDS011;2795;47.652;13.128;2023-06-10T11:07:54;18.30;;;7.60;;
5543;SDS011;2795;47.652;13.128;2023-06-10T11:10:31;14.07;;;7.53;;
5543;SDS011;2795;47.652;13.128;2023-06-10T11:12:59;13.10;;;7.13;;
5543;SDS011;2795;47.652;13.128;2023-06-10T11:15:31;15.27;;;7.80;;
5543;SDS011;2795;47.652;13.128;2023-06-10T11:18:08;15.20;;;7.80;;
5543;SDS011;2795;47.652;13.128;2023-06-10T11:23:25;20.80;;;8.80;;
5543;SDS011;2795;47.652;13.128;2023-06-10T11:31:19;16.20;;;7.83;;
5543;SDS011;2795;47.652;13.128;2023-06-10T11:33:48;19.80;;;8.70;;
5543;SDS011;2795;47.652;13.128;2023-06-10T11:36:21;15.17;;;7.77;;
5543;SDS011;2795;47.652;13.128;2023-06-10T11:38:55;12.80;;;7.30;;
5543;SDS011;2795;47.652;13.128;2023-06-10T11:41:26;12.97;;;7.10;;
5543;SDS011;2795;47.652;13.128;2023-06-10T11:43:54;12.53;;;8.10;;
5543;SDS011;2795;47.652;13.128;2023-06-10T11:46:24;12.00;;;7.20;;
5543;SDS011;2795;47.652;13.128;2023-06-10T11:48:57;16.03;;;8.17;;
5543;SDS011;2795;47.652;13.128;2023-06-10T11:51:31;13.80;;;7.80;;
5543;SDS011;2795;47.652;13.128;2023-06-10T11:54:00;15.70;;;7.90;;
5543;SDS011;2795;47.652;13.128;2023-06-10T11:56:28;12.20;;;7.10;;
5543;SDS011;2795;47.652;13.128;2023-06-10T11:58:57;12.40;;;7.50;;
5543;SDS011;2795;47.652;13.128;2023-06-10T12:01:27;14.73;;;8.00;;
5543;SDS011;2795;47.652;13.128;2023-06-10T12:04:03;14.10;;;7.43;;
5543;SDS011;2795;47.652;13.128;2023-06-10T12:06:38;10.50;;;7.47;;
5543;SDS011;2795;47.652;13.128;2023-06-10T12:09:18;13.70;;;7.50;;
5543;SDS011;2795;47.652;13.128;2023-06-10T12:11:53;13.90;;;8.17;;
5543;SDS011;2795;47.652;13.128;2023-06-10T12:17:17;18.30;;;8.80;;
5543;SDS011;2795;47.652;13.128;2023-06-10T12:19:44;15.60;;;8.40;;
5543;SDS011;2795;47.652;13.128;2023-06-10T12:22:12;16.40;;;9.00;;
5543;SDS011;2795;47.652;13.128;2023-06-10T12:24:57;14.83;;;8.47;;
5543;SDS011;2795;47.652;13.128;2023-06-10T12:27:28;18.40;;;8.00;;
5543;SDS011;2795;47.652;13.128;2023-06-10T12:29:58;15.10;;;8.40;;
5543;SDS011;2795;47.652;13.128;2023-06-10T12:32:39;16.23;;;7.97;;
5543;SDS011;2795;47.652;13.128;2023-06-10T12:35:12;14.67;;;8.20;;
5543;SDS011;2795;47.652;13.128;2023-06-10T12:37:42;14.87;;;7.60;;
5543;SDS011;2795;47.652;13.128;2023-06-10T12:40:09;13.30;;;7.00;;
5543;SDS011;2795;47.652;13.128;2023-06-10T12:42:38;17.67;;;8.17;;
5543;SDS011;2795;47.652;13.128;2023-06-10T12:45:05;16.77;;;8.53;;
5543;SDS011;2795;47.652;13.128;2023-06-10T12:47:39;16.10;;;7.97;;
5543;SDS011;2795;47.652;13.128;2023-06-10T12:50:07;11.17;;;7.40;;
5543;SDS011;2795;47.652;13.128;2023-06-10T12:52:39;16.37;;;8.40;;
5543;SDS011;2795;47.652;13.128;2023-06-10T12:55:06;15.40;;;9.10;;
5543;SDS011;2795;47.652;13.128;2023-06-10T12:57:34;21.97;;;7.73;;
5543;SDS011;2795;47.652;13.128;2023-06-10T13:00:02;12.27;;;7.03;;
5543;SDS011;2795;47.652;13.128;2023-06-10T13:02:31;19.17;;;8.47;;
5543;SDS011;2795;47.652;13.128;2023-06-10T13:04:58;14.70;;;8.17;;
5543;SDS011;2795;47.652;13.128;2023-06-10T13:07:26;13.17;;;7.33;;
5543;SDS011;2795;47.652;13.128;2023-06-10T13:09:53;11.73;;;7.20;;
5543;SDS011;2795;47.652;13.128;2023-06-10T13:12:20;13.50;;;7.73;;
5543;SDS011;2795;47.652;13.128;2023-06-10T13:15:03;25.07;;;7.87;;
5543;SDS011;2795;47.652;13.128;2023-06-10T13:17:31;15.17;;;7.60;;
5543;SDS011;2795;47.652;13.128;2023-06-10T13:20:02;11.23;;;7.80;;
5543;SDS011;2795;47.652;13.128;2023-06-10T13:22:32;13.77;;;8.00;;
5543;SDS011;2795;47.652;13.128;2023-06-10T13:25:00;11.23;;;7.60;;
5543;SDS011;2795;47.652;13.128;2023-06-10T13:27:32;14.03;;;7.90;;
5543;SDS011;2795;47.652;13.128;2023-06-10T13:29:59;12.90;;;7.70;;
5543;SDS011;2795;47.652;13.128;2023-06-10T13:32:26;13.90;;;7.80;;
5543;SDS011;2795;47.652;13.128;2023-06-10T13:34:54;13.40;;;7.80;;
5543;SDS011;2795;47.652;13.128;2023-06-10T13:37:22;11.13;;;7.20;;
5543;SDS011;2795;47.652;13.128;2023-06-10T13:39:50;13.97;;;7.70;;
5543;SDS011;2795;47.652;13.128;2023-06-10T13:42:20;11.70;;;7.13;;
5543;SDS011;2795;47.652;13.128;2023-06-10T13:44:50;13.80;;;7.57;;
5543;SDS011;2795;47.652;13.128;2023-06-10T13:47:19;14.00;;;6.87;;
5543;SDS011;2795;47.652;13.128;2023-06-10T13:49:49;15.70;;;7.63;;
5543;SDS011;2795;47.652;13.128;2023-06-10T13:52:18;15.70;;;8.23;;
5543;SDS011;2795;47.652;13.128;2023-06-10T13:54:45;16.00;;;7.57;;
5543;SDS011;2795;47.652;13.128;2023-06-10T13:57:16;18.23;;;8.03;;
5543;SDS011;2795;47.652;13.128;2023-06-10T13:59:47;16.00;;;8.10;;
5543;SDS011;2795;47.652;13.128;2023-06-10T14:02:19;14.00;;;7.50;;
5543;SDS011;2795;47.652;13.128;2023-06-10T14:04:51;16.13;;;8.20;;
5543;SDS011;2795;47.652;13.128;2023-06-10T14:07:24;17.50;;;8.47;;
5543;SDS011;2795;47.652;13.128;2023-06-10T14:09:55;15.47;;;8.33;;
5543;SDS011;2795;47.652;13.128;2023-06-10T14:12:26;15.23;;;8.00;;
5543;SDS011;2795;47.652;13.128;2023-06-10T14:14:57;12.93;;;7.57;;
5543;SDS011;2795;47.652;13.128;2023-06-10T14:17:29;17.40;;;7.90;;
5543;SDS011;2795;47.652;13.128;2023-06-10T14:20:03;10.27;;;6.93;;
5543;SDS011;2795;47.652;13.128;2023-06-10T14:22:33;18.23;;;8.33;;
5543;SDS011;2795;47.652;13.128;2023-06-10T14:25:03;16.63;;;8.90;;
5543;SDS011;2795;47.652;13.128;2023-06-10T14:27:32;22.00;;;8.67;;
5543;SDS011;2795;47.652;13.128;2023-06-10T14:30:05;14.77;;;7.70;;
5543;SDS011;2795;47.652;13.128;2023-06-10T14:32:35;17.80;;;8.17;;
5543;SDS011;2795;47.652;13.128;2023-06-10T14:35:05;14.90;;;7.10;;
5543;SDS011;2795;47.652;13.128;2023-06-10T14:37:35;19.67;;;7.97;;
5543;SDS011;2795;47.652;13.128;2023-06-10T14:40:07;15.23;;;7.60;;
5543;SDS011;2795;47.652;13.128;2023-06-10T14:42:38;21.00;;;7.50;;
5543;SDS011;2795;47.652;13.128;2023-06-10T14:45:09;17.27;;;7.60;;
5543;SDS011;2795;47.652;13.128;2023-06-10T14:47:38;24.20;;;8.67;;
5543;SDS011;2795;47.652;13.128;2023-06-10T14:50:12;15.47;;;7.47;;
5543;SDS011;2795;47.652;13.128;2023-06-10T14:52:43;16.30;;;7.57;;
5543;SDS011;2795;47.652;13.128;2023-06-10T14:55:16;18.63;;;8.50;;
5543;SDS011;2795;47.652;13.128;2023-06-10T14:57:47;17.87;;;8.07;;
5543;SDS011;2795;47.652;13.128;2023-06-10T15:00:19;14.20;;;7.57;;
5543;SDS011;2795;47.652;13.128;2023-06-10T15:02:53;13.23;;;7.23;;
5543;SDS011;2795;47.652;13.128;2023-06-10T15:05:22;18.93;;;8.10;;
5543;SDS011;2795;47.652;13.128;2023-06-10T15:07:52;13.27;;;6.60;;
5543;SDS011;2795;47.652;13.128;2023-06-10T15:10:19;12.40;;;6.23;;
5543;SDS011;2795;47.652;13.128;2023-06-10T15:12:49;17.10;;;7.30;;
5543;SDS011;2795;47.652;13.128;2023-06-10T15:15:23;12.10;;;6.60;;
5543;SDS011;2795;47.652;13.128;2023-06-10T15:17:53;15.60;;;6.87;;